sensor_id;sensor_type;location;lat;lon;timestamp;pressure;altitude;pressure_sealevel;temperature;humidity
67052;BME280;53957;47.222;18.670;2024-01-16T00:00:52;99086.56;;;-0.50;100.00
67052;BME280;53957;47.222;18.670;2024-01-16T00:03:58;99094.34;;;-0.55;100.00
67052;BME280;53957;47.222;18.670;2024-01-16T00:07:04;99102.56;;;-0.63;100.00
67052;BME280;53957;47.222;18.670;2024-01-16T00:10:07;99110.47;;;-0.75;100.00
67052;BME280;53957;47.222;18.670;2024-01-16T00:13:13;99101.91;;;-0.71;100.00
67052;BME280;53957;47.222;18.670;2024-01-16T00:16:16;99121.75;;;-0.75;100.00
67052;BME280;53957;47.222;18.670;2024-01-16T00:19:19;99121.44;;;-0.78;100.00
67052;BME280;53957;47.222;18.670;2024-01-16T00:22:23;99128.22;;;-0.94;100.00
67052;BME280;53957;47.222;18.670;2024-01-16T00:25:26;99130.81;;;-0.94;100.00
67052;BME280;53957;47.222;18.670;2024-01-16T00:28:31;99133.81;;;-1.03;100.00
67052;BME280;53957;47.222;18.670;2024-01-16T00:31:39;99134.19;;;-1.11;100.00
67052;BME280;53957;47.222;18.670;2024-01-16T00:34:43;99128.56;;;-1.03;100.00
67052;BME280;53957;47.222;18.670;2024-01-16T00:37:46;99137.50;;;-1.16;100.00
67052;BME280;53957;47.222;18.670;2024-01-16T00:40:50;99133.97;;;-1.21;100.00
67052;BME280;53957;47.222;18.670;2024-01-16T00:43:53;99133.97;;;-1.21;100.00
67052;BME280;53957;47.222;18.670;2024-01-16T00:46:56;99140.56;;;-1.19;100.00
67052;BME280;53957;47.222;18.670;2024-01-16T00:49:59;99148.75;;;-1.15;100.00
67052;BME280;53957;47.222;18.670;2024-01-16T00:53:04;99147.81;;;-1.09;100.00
67052;BME280;53957;47.222;18.670;2024-01-16T00:56:07;99155.56;;;-1.14;100.00
67052;BME280;53957;47.222;18.670;2024-01-16T00:59:10;99162.06;;;-1.17;100.00
67052;BME280;53957;47.222;18.670;2024-01-16T01:02:15;99162.22;;;-1.23;100.00
67052;BME280;53957;47.222;18.670;2024-01-16T01:05:18;99174.25;;;-1.22;100.00
67052;BME280;53957;47.222;18.670;2024-01-16T01:08:21;99179.59;;;-1.29;100.00
67052;BME280;53957;47.222;18.670;2024-01-16T01:11:24;99178.50;;;-1.33;100.00
67052;BME280;53957;47.222;18.670;2024-01-16T01:14:28;99183.47;;;-1.32;100.00
67052;BME280;53957;47.222;18.670;2024-01-16T01:17:33;99182.47;;;-1.42;100.00
67052;BME280;53957;47.222;18.670;2024-01-16T01:20:36;99187.94;;;-1.32;100.00
67052;BME280;53957;47.222;18.670;2024-01-16T01:23:43;99188.16;;;-1.57;100.00
67052;BME280;53957;47.222;18.670;2024-01-16T01:26:46;99192.59;;;-1.58;100.00
67052;BME280;53957;47.222;18.670;2024-01-16T01:29:50;99190.75;;;-1.69;100.00
67052;BME280;53957;47.222;18.670;2024-01-16T01:32:56;99199.53;;;-1.64;100.00
67052;BME280;53957;47.222;18.670;2024-01-16T01:36:00;99205.19;;;-1.67;100.00
67052;BME280;53957;47.222;18.670;2024-01-16T01:39:09;99204.53;;;-1.74;100.00
67052;BME280;53957;47.222;18.670;2024-01-16T01:42:15;99207.16;;;-1.74;100.00
67052;BME280;53957;47.222;18.670;2024-01-16T01:45:18;99208.94;;;-1.74;100.00
67052;BME280;53957;47.222;18.670;2024-01-16T01:48:25;99208.06;;;-1.80;100.00
67052;BME280;53957;47.222;18.670;2024-01-16T01:51:29;99213.47;;;-1.82;100.00
67052;BME280;53957;47.222;18.670;2024-01-16T01:54:35;99210.53;;;-1.85;100.00
67052;BME280;53957;47.222;18.670;2024-01-16T01:57:39;99217.22;;;-1.89;100.00
67052;BME280;53957;47.222;18.670;2024-01-16T02:00:46;99220.62;;;-2.01;100.00
67052;BME280;53957;47.222;18.670;2024-01-16T02:03:52;99244.84;;;-1.93;100.00
67052;BME280;53957;47.222;18.670;2024-01-16T02:06:55;99237.78;;;-1.93;100.00
67052;BME280;53957;47.222;18.670;2024-01-16T02:09:59;99237.44;;;-1.97;100.00
67052;BME280;53957;47.222;18.670;2024-01-16T02:13:05;99249.78;;;-2.04;100.00
67052;BME280;53957;47.222;18.670;2024-01-16T02:16:23;99251.41;;;-2.03;100.00
67052;BME280;53957;47.222;18.670;2024-01-16T02:19:27;99261.13;;;-2.10;100.00
67052;BME280;53957;47.222;18.670;2024-01-16T02:22:31;99259.09;;;-2.08;100.00
67052;BME280;53957;47.222;18.670;2024-01-16T02:25:37;99267.72;;;-2.07;100.00
67052;BME280;53957;47.222;18.670;2024-01-16T02:28:40;99271.59;;;-2.10;100.00
67052;BME280;53957;47.222;18.670;2024-01-16T02:31:44;99279.44;;;-2.10;100.00
67052;BME280;53957;47.222;18.670;2024-01-16T02:34:47;99286.91;;;-2.14;100.00
67052;BME280;53957;47.222;18.670;2024-01-16T02:37:50;99285.69;;;-2.11;100.00
67052;BME280;53957;47.222;18.670;2024-01-16T02:40:53;99293.19;;;-2.15;100.00
67052;BME280;53957;47.222;18.670;2024-01-16T02:43:56;99292.94;;;-2.13;100.00
67052;BME280;53957;47.222;18.670;2024-01-16T02:46:59;99290.75;;;-2.16;100.00
67052;BME280;53957;47.222;18.670;2024-01-16T02:50:03;99294.84;;;-2.20;100.00
67052;BME280;53957;47.222;18.670;2024-01-16T02:53:08;99290.88;;;-2.23;100.00
67052;BME280;53957;47.222;18.670;2024-01-16T02:56:11;99295.47;;;-2.37;100.00
67052;BME280;53957;47.222;18.670;2024-01-16T02:59:14;99299.00;;;-2.31;100.00
67052;BME280;53957;47.222;18.670;2024-01-16T03:02:17;99300.69;;;-2.37;100.00
67052;BME280;53957;47.222;18.670;2024-01-16T03:05:20;99298.28;;;-2.38;100.00
67052;BME280;53957;47.222;18.670;2024-01-16T03:08:23;99315.03;;;-2.28;100.00
67052;BME280;53957;47.222;18.670;2024-01-16T03:11:26;99321.44;;;-2.23;100.00
67052;BME280;53957;47.222;18.670;2024-01-16T03:14:32;99321.06;;;-2.27;100.00
67052;BME280;53957;47.222;18.670;2024-01-16T03:17:37;99317.63;;;-2.28;100.00
67052;BME280;53957;47.222;18.670;2024-01-16T03:20:41;99328.69;;;-2.25;100.00
67052;BME280;53957;47.222;18.670;2024-01-16T03:23:44;99327.53;;;-2.30;100.00
67052;BME280;53957;47.222;18.670;2024-01-16T03:26:48;99326.56;;;-2.17;100.00
67052;BME280;53957;47.222;18.670;2024-01-16T03:29:51;99327.50;;;-2.11;100.00
67052;BME280;53957;47.222;18.670;2024-01-16T03:32:57;99336.13;;;-1.80;100.00
67052;BME280;53957;47.222;18.670;2024-01-16T03:36:01;99331.16;;;-1.70;100.00
67052;BME280;53957;47.222;18.670;2024-01-16T03:39:05;99339.47;;;-1.61;100.00
67052;BME280;53957;47.222;18.670;2024-01-16T03:42:08;99341.66;;;-1.58;100.00
67052;BME280;53957;47.222;18.670;2024-01-16T03:45:11;99344.94;;;-1.51;100.00
67052;BME280;53957;47.222;18.670;2024-01-16T03:48:18;99354.59;;;-1.63;100.00
67052;BME280;53957;47.222;18.670;2024-01-16T03:51:21;99345.16;;;-1.64;100.00
67052;BME280;53957;47.222;18.670;2024-01-16T03:54:24;99350.41;;;-1.64;100.00
67052;BME280;53957;47.222;18.670;2024-01-16T03:57:28;99358.19;;;-1.76;100.00
67052;BME280;53957;47.222;18.670;2024-01-16T04:00:31;99357.97;;;-1.74;100.00
67052;BME280;53957;47.222;18.670;2024-01-16T04:03:34;99365.81;;;-1.74;100.00
67052;BME280;53957;47.222;18.670;2024-01-16T04:06:42;99369.53;;;-1.82;100.00
67052;BME280;53957;47.222;18.670;2024-01-16T04:09:45;99370.84;;;-1.91;100.00
67052;BME280;53957;47.222;18.670;2024-01-16T04:12:48;99373.63;;;-1.86;100.00
67052;BME280;53957;47.222;18.670;2024-01-16T04:15:52;99376.37;;;-1.81;100.00
67052;BME280;53957;47.222;18.670;2024-01-16T04:18:55;99380.16;;;-1.96;100.00
67052;BME280;53957;47.222;18.670;2024-01-16T04:21:59;99382.78;;;-2.14;100.00
67052;BME280;53957;47.222;18.670;2024-01-16T04:25:02;99391.66;;;-2.15;100.00
67052;BME280;53957;47.222;18.670;2024-01-16T04:28:07;99400.06;;;-2.13;100.00
67052;BME280;53957;47.222;18.670;2024-01-16T04:31:11;99407.16;;;-2.02;100.00
67052;BME280;53957;47.222;18.670;2024-01-16T04:34:16;99409.19;;;-2.04;100.00
67052;BME280;53957;47.222;18.670;2024-01-16T04:37:19;99403.53;;;-2.01;100.00
67052;BME280;53957;47.222;18.670;2024-01-16T04:40:23;99423.81;;;-2.15;100.00
67052;BME280;53957;47.222;18.670;2024-01-16T04:43:26;99427.44;;;-2.16;100.00
67052;BME280;53957;47.222;18.670;2024-01-16T04:46:29;99435.50;;;-2.17;100.00
67052;BME280;53957;47.222;18.670;2024-01-16T04:49:32;99439.69;;;-2.16;100.00
67052;BME280;53957;47.222;18.670;2024-01-16T04:52:35;99440.41;;;-2.09;100.00
67052;BME280;53957;47.222;18.670;2024-01-16T04:55:37;99439.69;;;-1.98;100.00
67052;BME280;53957;47.222;18.670;2024-01-16T04:58:41;99444.63;;;-2.08;100.00
67052;BME280;53957;47.222;18.670;2024-01-16T05:01:43;99443.03;;;-2.09;100.00
67052;BME280;53957;47.222;18.670;2024-01-16T05:04:47;99453.84;;;-2.05;100.00
67052;BME280;53957;47.222;18.670;2024-01-16T05:07:51;99457.09;;;-1.91;100.00
67052;BME280;53957;47.222;18.670;2024-01-16T05:10:55;99468.37;;;-1.91;100.00
67052;BME280;53957;47.222;18.670;2024-01-16T05:13:58;99469.28;;;-1.85;100.00
67052;BME280;53957;47.222;18.670;2024-01-16T05:17:01;99472.44;;;-1.95;100.00
67052;BME280;53957;47.222;18.670;2024-01-16T05:20:05;99481.00;;;-1.88;100.00
67052;BME280;53957;47.222;18.670;2024-01-16T05:23:09;99488.19;;;-1.83;100.00
67052;BME280;53957;47.222;18.670;2024-01-16T05:26:12;99489.06;;;-1.89;100.00
67052;BME280;53957;47.222;18.670;2024-01-16T05:29:15;99487.44;;;-1.90;100.00
67052;BME280;53957;47.222;18.670;2024-01-16T05:32:18;99492.41;;;-2.01;100.00
67052;BME280;53957;47.222;18.670;2024-01-16T05:35:21;99498.41;;;-2.00;100.00
67052;BME280;53957;47.222;18.670;2024-01-16T05:38:28;99499.22;;;-2.00;100.00
67052;BME280;53957;47.222;18.670;2024-01-16T05:41:35;99505.69;;;-2.02;100.00
67052;BME280;53957;47.222;18.670;2024-01-16T05:44:38;99501.25;;;-2.02;100.00
67052;BME280;53957;47.222;18.670;2024-01-16T05:47:41;99496.03;;;-2.02;100.00
67052;BME280;53957;47.222;18.670;2024-01-16T05:50:44;99500.66;;;-2.04;100.00
67052;BME280;53957;47.222;18.670;2024-01-16T05:53:48;99508.50;;;-2.04;100.00
67052;BME280;53957;47.222;18.670;2024-01-16T05:56:51;99527.53;;;-1.97;100.00
67052;BME280;53957;47.222;18.670;2024-01-16T05:59:54;99526.00;;;-2.04;100.00
67052;BME280;53957;47.222;18.670;2024-01-16T06:02:57;99530.25;;;-2.10;100.00
67052;BME280;53957;47.222;18.670;2024-01-16T06:06:01;99534.94;;;-2.12;100.00
67052;BME280;53957;47.222;18.670;2024-01-16T06:09:04;99544.13;;;-2.28;100.00
67052;BME280;53957;47.222;18.670;2024-01-16T06:12:08;99553.00;;;-2.36;100.00
67052;BME280;53957;47.222;18.670;2024-01-16T06:15:11;99557.13;;;-2.47;100.00
67052;BME280;53957;47.222;18.670;2024-01-16T06:18:14;99565.13;;;-2.41;100.00
67052;BME280;53957;47.222;18.670;2024-01-16T06:21:17;99576.81;;;-2.51;100.00
67052;BME280;53957;47.222;18.670;2024-01-16T06:24:23;99577.00;;;-2.20;100.00
67052;BME280;53957;47.222;18.670;2024-01-16T06:27:26;99578.16;;;-2.16;100.00
67052;BME280;53957;47.222;18.670;2024-01-16T06:30:31;99576.44;;;-2.04;100.00
67052;BME280;53957;47.222;18.670;2024-01-16T06:33:34;99578.50;;;-2.06;100.00
67052;BME280;53957;47.222;18.670;2024-01-16T06:36:38;99583.91;;;-2.07;100.00
67052;BME280;53957;47.222;18.670;2024-01-16T13:30:09;99782.22;;;4.63;43.18
67052;BME280;53957;47.222;18.670;2024-01-16T13:33:15;99781.69;;;4.56;43.29
67052;BME280;53957;47.222;18.670;2024-01-16T13:36:21;99778.41;;;4.43;44.48
67052;BME280;53957;47.222;18.670;2024-01-16T13:39:45;99780.69;;;4.34;43.97
67052;BME280;53957;47.222;18.670;2024-01-16T13:42:48;99783.91;;;4.09;45.79
67052;BME280;53957;47.222;18.670;2024-01-16T13:45:51;99780.84;;;4.17;44.83
67052;BME280;53957;47.222;18.670;2024-01-16T13:48:54;99781.06;;;4.16;45.25
67052;BME280;53957;47.222;18.670;2024-01-16T13:51:57;99787.34;;;3.82;46.17
67052;BME280;53957;47.222;18.670;2024-01-16T13:55:00;99788.97;;;3.89;45.58
67052;BME280;53957;47.222;18.670;2024-01-16T13:58:07;99772.16;;;3.67;46.19
67052;BME280;53957;47.222;18.670;2024-01-16T14:01:10;99778.09;;;3.58;45.83
67052;BME280;53957;47.222;18.670;2024-01-16T14:04:14;99772.91;;;3.41;46.72
67052;BME280;53957;47.222;18.670;2024-01-16T14:07:16;99770.47;;;3.34;46.23
67052;BME280;53957;47.222;18.670;2024-01-16T14:10:20;99770.81;;;3.43;47.20
67052;BME280;53957;47.222;18.670;2024-01-16T14:13:24;99774.56;;;3.47;47.62
67052;BME280;53957;47.222;18.670;2024-01-16T14:16:28;99773.34;;;3.54;47.21
67052;BME280;53957;47.222;18.670;2024-01-16T14:19:49;99774.53;;;3.69;46.46
67052;BME280;53957;47.222;18.670;2024-01-16T14:22:53;99781.06;;;3.39;46.82
67052;BME280;53957;47.222;18.670;2024-01-16T14:25:55;99775.16;;;3.32;46.83
67052;BME280;53957;47.222;18.670;2024-01-16T14:29:01;99788.03;;;3.28;46.69
67052;BME280;53957;47.222;18.670;2024-01-16T14:32:04;99784.09;;;3.31;46.81
67052;BME280;53957;47.222;18.670;2024-01-16T14:35:13;99784.78;;;3.21;46.97
67052;BME280;53957;47.222;18.670;2024-01-16T14:38:16;99788.97;;;3.00;50.81
67052;BME280;53957;47.222;18.670;2024-01-16T14:41:19;99783.59;;;2.89;55.60
67052;BME280;53957;47.222;18.670;2024-01-16T14:44:22;99786.03;;;2.96;59.51
67052;BME280;53957;47.222;18.670;2024-01-16T14:47:25;99779.03;;;2.85;64.95
67052;BME280;53957;47.222;18.670;2024-01-16T14:50:28;99779.75;;;2.80;66.59
67052;BME280;53957;47.222;18.670;2024-01-16T14:53:33;99775.88;;;2.66;68.48
67052;BME280;53957;47.222;18.670;2024-01-16T14:56:36;99774.59;;;2.51;70.14
67052;BME280;53957;47.222;18.670;2024-01-16T14:59:39;99769.97;;;2.41;70.91
67052;BME280;53957;47.222;18.670;2024-01-16T15:02:42;99771.94;;;2.17;73.81
67052;BME280;53957;47.222;18.670;2024-01-16T15:05:46;99770.16;;;2.06;74.59
67052;BME280;53957;47.222;18.670;2024-01-16T15:08:50;99761.69;;;1.87;78.40
67052;BME280;53957;47.222;18.670;2024-01-16T15:11:53;99766.31;;;1.68;82.26
67052;BME280;53957;47.222;18.670;2024-01-16T15:14:56;99767.25;;;1.33;85.38
67052;BME280;53957;47.222;18.670;2024-01-16T15:18:00;99779.94;;;1.24;85.69
67052;BME280;53957;47.222;18.670;2024-01-16T15:21:03;99777.56;;;0.99;89.46
67052;BME280;53957;47.222;18.670;2024-01-16T15:24:08;99788.53;;;0.84;93.23
67052;BME280;53957;47.222;18.670;2024-01-16T15:27:10;99788.97;;;0.69;96.33
67052;BME280;53957;47.222;18.670;2024-01-16T15:30:14;99796.59;;;0.46;97.53
67052;BME280;53957;47.222;18.670;2024-01-16T15:33:17;99797.06;;;0.43;96.74
67052;BME280;53957;47.222;18.670;2024-01-16T15:36:20;99798.72;;;0.26;98.59
67052;BME280;53957;47.222;18.670;2024-01-16T15:39:24;99799.75;;;0.25;97.82
67052;BME280;53957;47.222;18.670;2024-01-16T15:42:27;99799.53;;;-0.04;100.00
67052;BME280;53957;47.222;18.670;2024-01-16T15:45:29;99800.56;;;-0.05;100.00
67052;BME280;53957;47.222;18.670;2024-01-16T15:48:32;99806.03;;;-0.07;100.00
67052;BME280;53957;47.222;18.670;2024-01-16T15:51:37;99811.37;;;-0.13;100.00
67052;BME280;53957;47.222;18.670;2024-01-16T15:54:40;99822.25;;;-0.28;100.00
67052;BME280;53957;47.222;18.670;2024-01-16T15:57:44;99819.34;;;-0.57;100.00
67052;BME280;53957;47.222;18.670;2024-01-16T16:00:47;99830.91;;;-0.65;100.00
67052;BME280;53957;47.222;18.670;2024-01-16T16:03:50;99837.00;;;-0.90;100.00
67052;BME280;53957;47.222;18.670;2024-01-16T16:06:53;99851.31;;;-1.18;100.00
67052;BME280;53957;47.222;18.670;2024-01-16T16:09:56;99856.22;;;-1.03;100.00
67052;BME280;53957;47.222;18.670;2024-01-16T16:12:59;99866.59;;;-0.89;100.00
67052;BME280;53957;47.222;18.670;2024-01-16T16:16:02;99873.28;;;-0.93;100.00
67052;BME280;53957;47.222;18.670;2024-01-16T16:19:05;99872.13;;;-0.98;100.00
67052;BME280;53957;47.222;18.670;2024-01-16T16:22:09;99877.50;;;-0.92;100.00
67052;BME280;53957;47.222;18.670;2024-01-16T16:25:11;99858.25;;;-0.79;100.00
67052;BME280;53957;47.222;18.670;2024-01-16T16:28:14;99868.50;;;-0.59;100.00
67052;BME280;53957;47.222;18.670;2024-01-16T16:31:17;99873.69;;;-0.53;100.00
67052;BME280;53957;47.222;18.670;2024-01-16T16:34:20;99875.44;;;-0.28;100.00
67052;BME280;53957;47.222;18.670;2024-01-16T16:37:23;99890.56;;;0.07;100.00
67052;BME280;53957;47.222;18.670;2024-01-16T16:40:26;99886.56;;;-0.14;100.00
67052;BME280;53957;47.222;18.670;2024-01-16T16:43:32;99886.16;;;-0.11;100.00
67052;BME280;53957;47.222;18.670;2024-01-16T16:46:35;99881.34;;;-0.33;100.00
67052;BME280;53957;47.222;18.670;2024-01-16T16:49:39;99882.59;;;-0.35;100.00
67052;BME280;53957;47.222;18.670;2024-01-16T16:52:42;99889.84;;;-0.37;100.00
67052;BME280;53957;47.222;18.670;2024-01-16T16:55:46;99895.19;;;-0.44;100.00
67052;BME280;53957;47.222;18.670;2024-01-16T16:58:50;99892.41;;;-0.49;100.00
67052;BME280;53957;47.222;18.670;2024-01-16T17:01:53;99894.81;;;-0.47;100.00
67052;BME280;53957;47.222;18.670;2024-01-16T17:04:57;99897.50;;;-0.54;100.00
67052;BME280;53957;47.222;18.670;2024-01-16T17:08:01;99897.31;;;-0.59;100.00
67052;BME280;53957;47.222;18.670;2024-01-16T17:11:04;99893.63;;;-0.70;100.00
67052;BME280;53957;47.222;18.670;2024-01-16T17:14:06;99902.53;;;-0.78;100.00
67052;BME280;53957;47.222;18.670;2024-01-16T17:17:09;99904.38;;;-0.78;100.00
67052;BME280;53957;47.222;18.670;2024-01-16T17:20:13;99899.25;;;-0.92;100.00
67052;BME280;53957;47.222;18.670;2024-01-16T17:23:16;99905.16;;;-1.03;100.00
67052;BME280;53957;47.222;18.670;2024-01-16T17:26:19;99896.72;;;-1.05;100.00
67052;BME280;53957;47.222;18.670;2024-01-16T17:29:22;99886.41;;;-1.25;100.00
67052;BME280;53957;47.222;18.670;2024-01-16T17:32:25;99885.06;;;-1.35;100.00
67052;BME280;53957;47.222;18.670;2024-01-16T17:35:28;99875.72;;;-1.49;100.00
67052;BME280;53957;47.222;18.670;2024-01-16T17:38:32;99875.53;;;-1.54;100.00
67052;BME280;53957;47.222;18.670;2024-01-16T17:41:38;99870.13;;;-1.59;100.00
67052;BME280;53957;47.222;18.670;2024-01-16T17:44:48;99868.16;;;-1.64;100.00
67052;BME280;53957;47.222;18.670;2024-01-16T17:47:52;99856.50;;;-1.68;100.00
67052;BME280;53957;47.222;18.670;2024-01-16T17:50:55;99847.03;;;-1.69;100.00
67052;BME280;53957;47.222;18.670;2024-01-16T17:53:58;99848.56;;;-1.87;100.00
67052;BME280;53957;47.222;18.670;2024-01-16T17:57:01;99853.25;;;-1.64;100.00
67052;BME280;53957;47.222;18.670;2024-01-16T18:00:06;99842.78;;;-1.96;100.00
67052;BME280;53957;47.222;18.670;2024-01-16T18:03:11;99857.94;;;-2.11;100.00
67052;BME280;53957;47.222;18.670;2024-01-16T18:06:34;99870.03;;;-2.23;100.00
67052;BME280;53957;47.222;18.670;2024-01-16T18:09:38;99870.22;;;-2.18;100.00
67052;BME280;53957;47.222;18.670;2024-01-16T18:12:42;99858.50;;;-2.09;100.00
67052;BME280;53957;47.222;18.670;2024-01-16T18:15:46;99853.44;;;-1.97;100.00
67052;BME280;53957;47.222;18.670;2024-01-16T18:18:49;99861.72;;;-2.07;100.00
67052;BME280;53957;47.222;18.670;2024-01-16T18:21:54;99868.19;;;-2.16;100.00
67052;BME280;53957;47.222;18.670;2024-01-16T18:24:58;99857.56;;;-2.21;100.00
67052;BME280;53957;47.222;18.670;2024-01-16T18:28:01;99858.81;;;-2.31;100.00
67052;BME280;53957;47.222;18.670;2024-01-16T18:31:04;99855.13;;;-2.16;100.00
67052;BME280;53957;47.222;18.670;2024-01-16T18:34:08;99853.94;;;-2.20;100.00
67052;BME280;53957;47.222;18.670;2024-01-16T18:37:17;99849.59;;;-2.40;100.00
67052;BME280;53957;47.222;18.670;2024-01-16T18:40:21;99839.13;;;-2.40;100.00
67052;BME280;53957;47.222;18.670;2024-01-16T18:43:26;99837.12;;;-2.38;100.00
67052;BME280;53957;47.222;18.670;2024-01-16T18:46:30;99846.19;;;-2.40;100.00
67052;BME280;53957;47.222;18.670;2024-01-16T18:49:35;99835.56;;;-2.46;100.00
67052;BME280;53957;47.222;18.670;2024-01-16T18:52:39;99835.81;;;-2.74;100.00
67052;BME280;53957;47.222;18.670;2024-01-16T18:55:42;99840.06;;;-3.00;100.00
67052;BME280;53957;47.222;18.670;2024-01-16T18:58:46;99845.09;;;-3.12;100.00
67052;BME280;53957;47.222;18.670;2024-01-16T19:01:49;99834.44;;;-3.24;100.00
67052;BME280;53957;47.222;18.670;2024-01-16T19:04:53;99830.44;;;-3.33;100.00
67052;BME280;53957;47.222;18.670;2024-01-16T19:07:55;99835.47;;;-3.25;100.00
67052;BME280;53957;47.222;18.670;2024-01-16T19:10:59;99838.66;;;-3.49;100.00
67052;BME280;53957;47.222;18.670;2024-01-16T19:14:01;99825.81;;;-3.58;100.00
67052;BME280;53957;47.222;18.670;2024-01-16T19:17:05;99824.78;;;-3.70;100.00
67052;BME280;53957;47.222;18.670;2024-01-16T19:20:09;99818.56;;;-3.76;100.00
67052;BME280;53957;47.222;18.670;2024-01-16T19:23:13;99823.56;;;-3.87;100.00
67052;BME280;53957;47.222;18.670;2024-01-16T19:26:16;99830.56;;;-3.95;100.00
67052;BME280;53957;47.222;18.670;2024-01-16T19:29:20;99823.53;;;-4.01;100.00
67052;BME280;53957;47.222;18.670;2024-01-16T19:32:23;99833.53;;;-3.98;100.00
67052;BME280;53957;47.222;18.670;2024-01-16T19:35:26;99837.97;;;-3.92;100.00
67052;BME280;53957;47.222;18.670;2024-01-16T19:38:30;99839.16;;;-3.94;100.00
67052;BME280;53957;47.222;18.670;2024-01-16T19:41:34;99833.59;;;-3.84;100.00
67052;BME280;53957;47.222;18.670;2024-01-16T19:44:39;99834.16;;;-3.89;100.00
67052;BME280;53957;47.222;18.670;2024-01-16T19:47:43;99831.94;;;-3.99;100.00
67052;BME280;53957;47.222;18.670;2024-01-16T19:50:47;99824.69;;;-4.10;100.00
67052;BME280;53957;47.222;18.670;2024-01-16T19:53:51;99819.47;;;-4.10;100.00
67052;BME280;53957;47.222;18.670;2024-01-16T19:56:54;99816.81;;;-4.24;100.00
67052;BME280;53957;47.222;18.670;2024-01-16T19:59:58;99826.72;;;-4.06;100.00
67052;BME280;53957;47.222;18.670;2024-01-16T20:03:02;99826.75;;;-3.85;100.00
67052;BME280;53957;47.222;18.670;2024-01-16T20:06:11;99831.94;;;-3.99;100.00
67052;BME280;53957;47.222;18.670;2024-01-16T20:09:15;99827.16;;;-3.89;100.00
67052;BME280;53957;47.222;18.670;2024-01-16T20:12:19;99847.81;;;-3.80;100.00
67052;BME280;53957;47.222;18.670;2024-01-16T20:15:37;99846.44;;;-3.76;100.00
67052;BME280;53957;47.222;18.670;2024-01-16T20:18:42;99846.16;;;-4.08;100.00
67052;BME280;53957;47.222;18.670;2024-01-16T20:21:45;99847.19;;;-3.96;100.00
67052;BME280;53957;47.222;18.670;2024-01-16T20:24:49;99845.19;;;-3.87;100.00
67052;BME280;53957;47.222;18.670;2024-01-16T20:27:56;99841.81;;;-3.74;100.00
67052;BME280;53957;47.222;18.670;2024-01-16T20:31:00;99844.44;;;-3.61;100.00
67052;BME280;53957;47.222;18.670;2024-01-16T20:34:03;99849.69;;;-3.54;100.00
67052;BME280;53957;47.222;18.670;2024-01-16T20:37:07;99844.09;;;-3.44;100.00
67052;BME280;53957;47.222;18.670;2024-01-16T20:40:10;99855.31;;;-3.44;100.00
67052;BME280;53957;47.222;18.670;2024-01-16T20:43:14;99855.91;;;-3.42;100.00
67052;BME280;53957;47.222;18.670;2024-01-16T20:46:16;99853.31;;;-3.35;100.00
67052;BME280;53957;47.222;18.670;2024-01-16T20:49:20;99855.72;;;-3.40;100.00
67052;BME280;53957;47.222;18.670;2024-01-16T20:52:23;99854.72;;;-3.26;100.00
67052;BME280;53957;47.222;18.670;2024-01-16T20:55:27;99851.53;;;-3.21;100.00
67052;BME280;53957;47.222;18.670;2024-01-16T20:58:30;99852.91;;;-3.32;100.00
67052;BME280;53957;47.222;18.670;2024-01-16T21:01:33;99855.31;;;-3.37;100.00
67052;BME280;53957;47.222;18.670;2024-01-16T21:04:37;99858.72;;;-3.30;100.00
67052;BME280;53957;47.222;18.670;2024-01-16T21:07:40;99858.53;;;-3.15;100.00
67052;BME280;53957;47.222;18.670;2024-01-16T21:10:44;99845.47;;;-3.35;100.00
67052;BME280;53957;47.222;18.670;2024-01-16T21:13:47;99844.47;;;-3.34;100.00
67052;BME280;53957;47.222;18.670;2024-01-16T21:16:51;99846.09;;;-3.33;100.00
67052;BME280;53957;47.222;18.670;2024-01-16T21:19:54;99841.28;;;-3.49;100.00
67052;BME280;53957;47.222;18.670;2024-01-16T21:22:58;99834.44;;;-3.50;100.00
67052;BME280;53957;47.222;18.670;2024-01-16T21:26:03;99833.47;;;-3.29;100.00
67052;BME280;53957;47.222;18.670;2024-01-16T21:29:09;99832.25;;;-3.47;100.00
67052;BME280;53957;47.222;18.670;2024-01-16T21:32:12;99835.03;;;-3.35;100.00
67052;BME280;53957;47.222;18.670;2024-01-16T21:35:15;99836.06;;;-3.43;100.00
67052;BME280;53957;47.222;18.670;2024-01-16T21:38:20;99840.84;;;-3.60;100.00
67052;BME280;53957;47.222;18.670;2024-01-16T21:41:22;99841.19;;;-3.90;100.00
67052;BME280;53957;47.222;18.670;2024-01-16T21:44:25;99835.88;;;-4.23;100.00
67052;BME280;53957;47.222;18.670;2024-01-16T21:47:28;99838.25;;;-4.28;100.00
67052;BME280;53957;47.222;18.670;2024-01-16T21:50:32;99825.00;;;-4.33;100.00
67052;BME280;53957;47.222;18.670;2024-01-16T21:53:39;99822.59;;;-4.35;100.00
67052;BME280;53957;47.222;18.670;2024-01-16T21:56:42;99825.34;;;-4.43;100.00
67052;BME280;53957;47.222;18.670;2024-01-16T21:59:45;99823.41;;;-4.34;100.00
67052;BME280;53957;47.222;18.670;2024-01-16T22:02:49;99817.81;;;-4.31;100.00
67052;BME280;53957;47.222;18.670;2024-01-16T22:05:59;99819.53;;;-3.97;100.00
67052;BME280;53957;47.222;18.670;2024-01-16T22:09:03;99813.00;;;-4.28;100.00
67052;BME280;53957;47.222;18.670;2024-01-16T22:12:07;99804.78;;;-4.31;100.00
67052;BME280;53957;47.222;18.670;2024-01-16T22:15:11;99804.59;;;-4.30;100.00
67052;BME280;53957;47.222;18.670;2024-01-16T22:18:15;99795.16;;;-4.38;100.00
67052;BME280;53957;47.222;18.670;2024-01-16T22:21:19;99798.47;;;-4.57;100.00
67052;BME280;53957;47.222;18.670;2024-01-16T22:24:22;99798.69;;;-4.94;100.00
67052;BME280;53957;47.222;18.670;2024-01-16T22:27:25;99802.72;;;-4.85;100.00
67052;BME280;53957;47.222;18.670;2024-01-16T22:30:28;99788.50;;;-4.89;100.00
67052;BME280;53957;47.222;18.670;2024-01-16T22:33:31;99787.31;;;-4.86;100.00
67052;BME280;53957;47.222;18.670;2024-01-16T22:36:38;99786.66;;;-4.95;100.00
67052;BME280;53957;47.222;18.670;2024-01-16T22:39:42;99789.06;;;-4.93;100.00
67052;BME280;53957;47.222;18.670;2024-01-16T22:42:45;99785.84;;;-4.95;100.00